createdAt,value
2022-10-22T00:02:56.911Z,86.92
2022-10-22T00:05:59.729Z,86.97
2022-10-22T00:09:02.448Z,86.91
2022-10-22T00:12:05.446Z,87.05
2022-10-22T00:15:08.536Z,87.08
2022-10-22T00:18:11.100Z,87.36
2022-10-22T00:21:13.696Z,87.41
2022-10-22T00:24:16.980Z,88.04
2022-10-22T00:27:22.700Z,89.42
2022-10-22T00:30:25.235Z,88.78
2022-10-22T00:33:28.871Z,88.61
2022-10-22T00:36:31.447Z,88.67
2022-10-22T00:39:33.979Z,89.13
2022-10-22T00:42:36.602Z,88.71
2022-10-22T00:45:39.391Z,88.62
2022-10-22T00:48:44.804Z,88.79
2022-10-22T00:51:47.394Z,90.36
2022-10-22T00:54:53.400Z,90.23
2022-10-22T00:57:57.223Z,90.62
2022-10-22T01:00:59.935Z,90.50
2022-10-22T01:04:02.571Z,90.69
2022-10-22T01:07:05.293Z,90.85
2022-10-22T01:10:21.490Z,91.34
2022-10-22T01:13:40.131Z,91.50
2022-10-22T01:16:54.942Z,91.37
2022-10-22T01:20:13.562Z,91.37
2022-10-22T01:23:21.402Z,90.98
2022-10-22T01:26:26.953Z,91.15
2022-10-22T01:29:52.416Z,90.93
2022-10-22T01:32:59.301Z,91.03
2022-10-22T01:36:02.926Z,91.60
2022-10-22T01:39:05.997Z,91.80
2022-10-22T01:42:08.552Z,91.69
2022-10-22T01:45:13.242Z,92.09
2022-10-22T01:48:45.680Z,93.06
2022-10-22T01:52:06.947Z,92.11
2022-10-22T01:55:12.560Z,91.77
2022-10-22T01:58:36.887Z,92.62
2022-10-22T02:01:50.386Z,92.21
2022-10-22T02:04:58.008Z,92.22
2022-10-22T02:08:04.974Z,92.95
2022-10-22T02:11:09.364Z,92.88
2022-10-22T02:14:12.806Z,92.44
2022-10-22T02:17:20.587Z,92.33
2022-10-22T02:20:28.822Z,92.42
2022-10-22T02:23:31.310Z,92.56
2022-10-22T02:27:06.304Z,92.90
2022-10-22T02:30:11.757Z,92.87
2022-10-22T02:33:23.378Z,93.08
2022-10-22T02:36:29.437Z,93.40
2022-10-22T02:39:32.771Z,93.08
2022-10-22T02:42:35.625Z,93.16
2022-10-22T02:45:38.348Z,92.90
2022-10-22T02:48:41.075Z,92.91
2022-10-22T02:51:43.699Z,93.80
2022-10-22T02:54:46.286Z,94.47
2022-10-22T02:57:48.908Z,94.76
2022-10-22T03:00:51.615Z,95.19
2022-10-22T03:03:54.388Z,96.77
2022-10-22T03:06:57.016Z,96.17
2022-10-22T03:10:02.878Z,94.95
2022-10-22T03:13:05.408Z,96.38
2022-10-22T03:16:10.550Z,96.03
2022-10-22T03:19:13.098Z,95.17
2022-10-22T03:22:25.578Z,95.04
2022-10-22T03:25:34.729Z,96.31
2022-10-22T03:28:37.839Z,96.52
2022-10-22T03:31:40.441Z,96.66
2022-10-22T03:34:43.060Z,96.82
2022-10-22T03:37:45.843Z,95.71
2022-10-22T03:40:48.902Z,95.22
2022-10-22T03:43:53.291Z,95.81
2022-10-22T03:46:58.711Z,95.68
2022-10-22T03:50:06.024Z,95.67
2022-10-22T03:53:10.745Z,95.70
2022-10-22T03:56:13.990Z,95.49
2022-10-22T03:59:16.604Z,95.11
2022-10-22T04:02:19.191Z,95.24
2022-10-22T04:05:21.761Z,95.68
2022-10-22T04:08:24.268Z,95.52
2022-10-22T04:11:27.259Z,96.74
2022-10-22T04:14:29.839Z,96.16
2022-10-22T04:17:36.657Z,96.33
2022-10-22T04:20:39.294Z,96.10
2022-10-22T04:23:47.124Z,96.57
2022-10-22T04:26:51.211Z,96.87
2022-10-22T04:29:53.814Z,97.47
2022-10-22T04:32:56.330Z,97.66
2022-10-22T04:35:58.973Z,97.42
2022-10-22T04:39:02.322Z,96.58
2022-10-22T04:42:05.192Z,96.24
2022-10-22T04:45:08.275Z,97.08
2022-10-22T04:48:11.160Z,97.20
2022-10-22T04:51:19.027Z,97.00
2022-10-22T04:54:21.687Z,96.18
2022-10-22T04:57:24.251Z,95.93
2022-10-22T05:00:26.917Z,96.79
2022-10-22T05:03:29.441Z,97.12
2022-10-22T05:06:33.136Z,96.93
2022-10-22T05:09:35.661Z,97.22
2022-10-22T05:12:41.506Z,97.51
2022-10-22T05:15:44.028Z,96.46
2022-10-22T05:18:46.722Z,96.38
2022-10-22T05:21:49.396Z,96.06
2022-10-22T05:24:58.838Z,96.73
2022-10-22T05:28:05.166Z,97.28
2022-10-22T05:31:12.608Z,97.97
2022-10-22T05:34:15.895Z,98.30
2022-10-22T05:37:18.473Z,97.50
2022-10-22T05:40:30.385Z,97.30
2022-10-22T05:43:34.523Z,97.35
2022-10-22T05:46:37.088Z,98.26
2022-10-22T05:49:43.035Z,98.30
2022-10-22T05:52:45.619Z,97.75
2022-10-22T05:55:51.125Z,98.75
2022-10-22T05:58:54.170Z,98.66
2022-10-22T06:01:56.873Z,98.48
2022-10-22T06:05:00.361Z,98.50
2022-10-22T06:08:03.436Z,100.00
2022-10-22T06:11:09.085Z,99.66
2022-10-22T06:14:13.513Z,100.00
2022-10-22T06:17:16.183Z,100.00
2022-10-22T06:20:18.935Z,100.00
2022-10-22T06:23:22.984Z,100.00
2022-10-22T06:26:26.180Z,100.00
2022-10-22T06:29:28.822Z,100.00
2022-10-22T06:32:31.645Z,99.06
2022-10-22T06:35:34.420Z,99.11
2022-10-22T06:38:37.145Z,99.15
2022-10-22T06:41:42.796Z,98.22
2022-10-22T06:44:45.859Z,97.75
2022-10-22T06:47:49.221Z,97.80
2022-10-22T06:50:51.912Z,96.92
2022-10-22T06:53:56.255Z,96.39
2022-10-22T06:56:59.057Z,96.36
2022-10-22T07:00:07.597Z,95.81
2022-10-22T07:03:14.164Z,95.58
2022-10-22T07:06:17.073Z,95.28
2022-10-22T07:09:22.945Z,94.56
2022-10-22T07:12:26.362Z,93.70
2022-10-22T07:15:29.029Z,93.80
2022-10-22T07:18:32.316Z,93.10
2022-10-22T07:21:35.387Z,92.55
2022-10-22T07:24:38.029Z,90.57
2022-10-22T07:27:41.118Z,90.44
2022-10-22T07:30:43.920Z,89.69
2022-10-22T07:33:47.033Z,87.63
2022-10-22T07:36:49.691Z,86.87
2022-10-22T07:39:52.658Z,86.66
2022-10-22T07:42:55.509Z,84.57
2022-10-22T07:45:59.789Z,85.59
2022-10-22T07:49:02.452Z,84.58
2022-10-22T07:52:05.349Z,84.66
2022-10-22T07:55:08.474Z,84.64
2022-10-22T07:58:12.039Z,85.43
2022-10-22T08:01:15.045Z,86.21
2022-10-22T08:04:17.692Z,84.72
2022-10-22T08:07:20.591Z,85.26
2022-10-22T08:10:23.734Z,84.59
2022-10-22T08:13:27.641Z,84.52
2022-10-22T08:16:30.584Z,83.93
2022-10-22T08:19:33.563Z,83.89
2022-10-22T08:22:36.479Z,84.15
2022-10-22T08:25:39.549Z,83.42
2022-10-22T08:28:42.570Z,84.04
2022-10-22T08:31:45.481Z,83.85
2022-10-22T08:34:48.223Z,82.58
2022-10-22T08:37:51.166Z,81.63
2022-10-22T08:41:04.283Z,80.29
2022-10-22T08:44:24.941Z,80.20
2022-10-22T08:48:07.309Z,78.83
2022-10-22T08:51:20.251Z,79.00
2022-10-22T08:54:46.016Z,78.12
2022-10-22T08:57:55.867Z,77.85
2022-10-22T09:01:40.489Z,78.05
2022-10-22T09:04:49.563Z,77.94
2022-10-22T09:07:53.323Z,77.30
2022-10-22T09:11:19.468Z,77.12
2022-10-22T09:14:23.970Z,77.62
2022-10-22T09:17:35.854Z,77.40
2022-10-22T09:20:38.692Z,77.55
2022-10-22T09:24:00.662Z,78.31
2022-10-22T09:27:20.348Z,78.63
2022-10-22T09:30:31.223Z,78.98
2022-10-22T09:33:34.202Z,78.84
2022-10-22T09:36:38.344Z,78.65
2022-10-22T09:39:44.680Z,78.65
2022-10-22T09:42:47.425Z,78.38
2022-10-22T09:45:58.289Z,78.76
2022-10-22T09:49:02.217Z,78.76
2022-10-22T09:52:26.931Z,78.06
2022-10-22T09:55:29.729Z,78.23
2022-10-22T09:58:43.044Z,78.10
2022-10-22T10:01:45.881Z,78.03
2022-10-22T10:04:51.502Z,76.96
2022-10-22T10:07:54.161Z,77.29
2022-10-22T10:11:29.292Z,77.37
2022-10-22T10:14:38.274Z,77.53
2022-10-22T10:17:46.761Z,77.33
2022-10-22T10:21:16.467Z,77.30
2022-10-22T10:24:44.095Z,77.36
2022-10-22T10:28:16.547Z,76.96
2022-10-22T10:31:50.344Z,76.42
2022-10-22T10:35:11.806Z,77.05
2022-10-22T10:38:25.955Z,77.22
2022-10-22T10:41:37.561Z,77.87
2022-10-22T10:45:01.702Z,77.17
2022-10-22T10:48:27.441Z,77.61
2022-10-22T10:51:52.015Z,75.63
2022-10-22T10:55:19.348Z,75.91
2022-10-22T10:58:39.152Z,76.83
2022-10-22T11:02:00.971Z,76.55
2022-10-22T11:05:30.783Z,76.47
2022-10-22T11:08:42.294Z,75.26
2022-10-22T11:11:52.583Z,75.92
2022-10-22T11:15:11.683Z,76.27
2022-10-22T11:18:37.434Z,75.93
2022-10-22T11:22:06.955Z,75.31
2022-10-22T11:25:12.815Z,74.74
2022-10-22T11:28:18.880Z,74.92
2022-10-22T11:31:25.028Z,74.88
2022-10-22T11:34:42.784Z,75.17
2022-10-22T11:37:46.000Z,74.83
2022-10-22T11:41:02.655Z,75.45
2022-10-22T11:44:09.912Z,75.35
2022-10-22T11:47:25.924Z,74.64
2022-10-22T11:50:47.703Z,74.96
2022-10-22T11:53:56.921Z,74.52
2022-10-22T11:57:15.315Z,74.77
2022-10-22T12:00:41.635Z,74.37
2022-10-22T12:04:12.684Z,75.22
2022-10-22T12:07:49.777Z,74.46
2022-10-22T12:11:02.045Z,74.34
2022-10-22T12:14:24.668Z,74.62
2022-10-22T12:17:28.539Z,75.31
2022-10-22T12:20:31.398Z,74.69
2022-10-22T12:23:35.761Z,75.20
2022-10-22T12:26:38.531Z,74.95
2022-10-22T12:29:41.988Z,75.44
2022-10-22T12:32:44.932Z,75.14
2022-10-22T12:35:49.298Z,75.82
2022-10-22T12:38:52.099Z,75.76
2022-10-22T12:41:55.142Z,76.15
2022-10-22T12:44:57.878Z,77.04
2022-10-22T12:48:07.023Z,77.00
2022-10-22T12:51:15.606Z,77.48
2022-10-22T12:54:29.977Z,77.16
2022-10-22T12:57:32.690Z,77.77
2022-10-22T13:00:35.981Z,77.62
2022-10-22T13:03:52.416Z,78.03
2022-10-22T13:07:18.481Z,77.42
2022-10-22T13:10:32.751Z,78.00
2022-10-22T13:13:45.971Z,77.38
2022-10-22T13:17:06.412Z,77.90
2022-10-22T13:20:20.175Z,77.26
2022-10-22T13:23:28.363Z,77.62
2022-10-22T13:26:34.699Z,77.99
2022-10-22T13:29:41.847Z,77.40
2022-10-22T13:32:50.524Z,77.60
2022-10-22T13:35:54.616Z,77.12
2022-10-22T13:38:57.741Z,76.84
2022-10-22T13:42:00.667Z,77.35
2022-10-22T13:45:03.344Z,77.02
2022-10-22T13:48:06.722Z,77.23
2022-10-22T13:51:31.499Z,77.26
2022-10-22T13:54:34.210Z,77.29
2022-10-22T13:57:36.978Z,77.41
2022-10-22T14:00:44.262Z,77.17
2022-10-22T14:03:47.758Z,77.75
2022-10-22T14:06:50.487Z,78.20
2022-10-22T14:09:53.094Z,78.70
2022-10-22T14:12:55.747Z,78.29
2022-10-22T14:15:58.333Z,78.70
2022-10-22T14:19:01.665Z,78.50
2022-10-22T14:22:05.328Z,79.16
2022-10-22T14:25:11.974Z,79.21
2022-10-22T14:28:15.147Z,79.93
2022-10-22T14:31:17.990Z,81.98
2022-10-22T14:34:20.751Z,82.89
2022-10-22T14:37:25.202Z,83.61
2022-10-22T14:40:27.846Z,84.40
2022-10-22T14:43:31.465Z,85.86
2022-10-22T14:46:37.232Z,87.42
2022-10-22T14:49:40.027Z,86.79
2022-10-22T14:52:43.894Z,86.97
2022-10-22T14:55:49.281Z,88.62
2022-10-22T14:58:53.678Z,89.08
2022-10-22T15:01:59.410Z,90.08
2022-10-22T15:05:02.027Z,90.43
2022-10-22T15:08:05.580Z,91.32
2022-10-22T15:11:11.393Z,92.11
2022-10-22T15:14:15.690Z,91.65
2022-10-22T15:17:19.389Z,92.59
2022-10-22T15:20:22.111Z,92.63
2022-10-22T15:23:25.687Z,93.07
2022-10-22T15:26:29.418Z,93.70
2022-10-22T15:29:33.332Z,93.66
2022-10-22T15:32:36.581Z,94.17
2022-10-22T15:35:39.312Z,94.07
2022-10-22T15:38:42.381Z,94.05
2022-10-22T15:41:47.244Z,95.73
2022-10-22T15:44:50.288Z,95.77
2022-10-22T15:47:53.023Z,95.21
2022-10-22T15:50:55.754Z,95.88
2022-10-22T15:53:59.560Z,96.54
2022-10-22T15:57:03.889Z,97.16
2022-10-22T16:00:07.731Z,96.85
2022-10-22T16:03:10.428Z,96.95
2022-10-22T16:06:13.174Z,97.32
2022-10-22T16:09:19.770Z,97.73
2022-10-22T16:12:23.165Z,97.90
2022-10-22T16:15:26.681Z,98.36
2022-10-22T16:18:29.950Z,98.54
2022-10-22T16:21:35.912Z,98.18
2022-10-22T16:24:41.390Z,98.40
2022-10-22T16:27:49.749Z,98.90
2022-10-22T16:30:56.530Z,98.66
2022-10-22T16:33:59.364Z,98.88
2022-10-22T16:37:02.800Z,99.50
2022-10-22T16:40:08.249Z,99.10
2022-10-22T16:43:11.383Z,99.16
2022-10-22T16:46:17.510Z,99.36
2022-10-22T16:49:20.659Z,99.14
2022-10-22T16:52:23.425Z,99.49
2022-10-22T16:55:27.152Z,99.80
2022-10-22T16:58:33.471Z,99.58
2022-10-22T17:01:40.888Z,100.00
2022-10-22T17:04:44.238Z,100.00
2022-10-22T17:07:47.223Z,99.97
2022-10-22T17:10:50.325Z,100.00
2022-10-22T17:13:54.642Z,100.00
2022-10-22T17:16:57.907Z,100.00
2022-10-22T17:20:01.047Z,100.00
2022-10-22T17:23:05.038Z,100.00
2022-10-22T17:26:09.898Z,100.00
2022-10-22T17:29:13.871Z,100.00
2022-10-22T17:32:16.860Z,100.00
2022-10-22T17:35:20.576Z,100.00
2022-10-22T17:38:23.603Z,100.00
2022-10-22T17:41:30.027Z,100.00
2022-10-22T17:44:33.027Z,100.00
2022-10-22T17:47:37.938Z,100.00
2022-10-22T17:50:48.218Z,100.00
2022-10-22T17:53:54.176Z,100.00
2022-10-22T17:56:57.741Z,100.00
2022-10-22T18:00:00.624Z,100.00
2022-10-22T18:03:03.661Z,100.00
2022-10-22T18:06:10.814Z,100.00
2022-10-22T18:09:18.435Z,100.00
2022-10-22T18:12:22.072Z,100.00
2022-10-22T18:15:26.251Z,100.00
2022-10-22T18:18:29.363Z,100.00
2022-10-22T18:21:34.083Z,100.00
2022-10-22T18:24:37.364Z,100.00
2022-10-22T18:27:40.793Z,100.00
2022-10-22T18:30:45.706Z,100.00
2022-10-22T18:33:49.117Z,100.00
2022-10-22T18:36:52.364Z,100.00
2022-10-22T18:39:55.342Z,100.00
2022-10-22T18:43:04.816Z,100.00
2022-10-22T18:46:08.536Z,100.00
2022-10-22T18:49:18.464Z,100.00
2022-10-22T18:52:21.677Z,100.00
2022-10-22T18:55:24.876Z,100.00
2022-10-22T18:58:29.166Z,100.00
2022-10-22T19:01:35.470Z,100.00
2022-10-22T19:04:38.531Z,100.00
2022-10-22T19:07:41.828Z,100.00
2022-10-22T19:10:46.875Z,100.00
2022-10-22T19:13:50.519Z,100.00
2022-10-22T19:16:53.595Z,100.00
2022-10-22T19:20:00.459Z,100.00
2022-10-22T19:23:04.957Z,100.00
2022-10-22T19:26:11.535Z,100.00
2022-10-22T19:29:16.878Z,100.00
2022-10-22T19:32:20.350Z,100.00
2022-10-22T19:35:23.540Z,100.00
2022-10-22T19:38:29.911Z,100.00
2022-10-22T19:41:33.285Z,100.00
2022-10-22T19:44:36.375Z,100.00
2022-10-22T19:47:39.257Z,100.00
2022-10-22T19:50:42.205Z,100.00
2022-10-22T19:53:47.791Z,100.00
2022-10-22T19:56:51.369Z,100.00
2022-10-22T19:59:54.525Z,100.00
2022-10-22T20:02:58.332Z,100.00
2022-10-22T20:06:01.117Z,100.00
2022-10-22T20:09:04.022Z,100.00
2022-10-22T20:12:06.888Z,100.00
2022-10-22T20:15:09.673Z,100.00
2022-10-22T20:18:12.329Z,100.00
2022-10-22T20:21:17.052Z,100.00
2022-10-22T20:24:20.049Z,100.00
2022-10-22T20:27:22.806Z,100.00
2022-10-22T20:30:25.914Z,100.00
2022-10-22T20:33:28.722Z,100.00
2022-10-22T20:36:32.828Z,100.00
2022-10-22T20:39:35.698Z,100.00
2022-10-22T20:42:42.209Z,100.00
2022-10-22T20:45:45.589Z,100.00
2022-10-22T20:48:52.200Z,100.00
2022-10-22T20:51:55.310Z,100.00
2022-10-22T20:54:58.148Z,100.00
2022-10-22T20:58:00.904Z,100.00
2022-10-22T21:01:10.243Z,100.00
2022-10-22T21:04:13.373Z,100.00
2022-10-22T21:07:15.989Z,100.00
2022-10-22T21:10:18.673Z,100.00
2022-10-22T21:13:21.294Z,100.00
2022-10-22T21:16:24.178Z,100.00
2022-10-22T21:19:27.208Z,100.00
2022-10-22T21:22:29.885Z,100.00
2022-10-22T21:25:32.600Z,100.00
2022-10-22T21:28:36.830Z,100.00
2022-10-22T21:31:40.655Z,100.00
2022-10-22T21:34:44.155Z,100.00
2022-10-22T21:37:46.975Z,100.00
2022-10-22T21:40:50.339Z,100.00
2022-10-22T21:43:53.128Z,100.00
2022-10-22T21:46:55.925Z,100.00
2022-10-22T21:49:58.496Z,100.00
2022-10-22T21:53:01.295Z,100.00
2022-10-22T21:56:04.764Z,100.00
2022-10-22T21:59:07.667Z,100.00
2022-10-22T22:02:11.234Z,100.00
2022-10-22T22:05:13.997Z,100.00
2022-10-22T22:08:17.169Z,100.00
2022-10-22T22:11:27.599Z,100.00
2022-10-22T22:14:31.032Z,100.00
2022-10-22T22:17:33.704Z,100.00
2022-10-22T22:20:39.420Z,100.00
2022-10-22T22:23:43.876Z,100.00
2022-10-22T22:26:46.561Z,100.00
2022-10-22T22:29:49.343Z,100.00
2022-10-22T22:32:51.888Z,100.00
2022-10-22T22:35:58.867Z,100.00
2022-10-22T22:39:01.480Z,100.00
2022-10-22T22:42:04.470Z,100.00
2022-10-22T22:45:07.485Z,100.00
2022-10-22T22:48:10.140Z,100.00
2022-10-22T22:51:16.030Z,100.00
2022-10-22T22:54:18.642Z,100.00
2022-10-22T22:57:21.429Z,100.00
2022-10-22T23:00:24.044Z,100.00
2022-10-22T23:03:26.654Z,100.00
2022-10-22T23:06:32.479Z,100.00
2022-10-22T23:09:35.496Z,100.00
2022-10-22T23:12:38.256Z,100.00
2022-10-22T23:15:40.876Z,100.00
2022-10-22T23:18:44.519Z,100.00
2022-10-22T23:21:52.432Z,100.00
2022-10-22T23:24:55.092Z,100.00
2022-10-22T23:27:57.872Z,100.00
2022-10-22T23:31:05.216Z,100.00
2022-10-22T23:34:08.309Z,100.00
2022-10-22T23:37:12.298Z,100.00
2022-10-22T23:40:15.029Z,100.00
2022-10-22T23:43:17.628Z,100.00
2022-10-22T23:46:20.364Z,100.00
2022-10-22T23:49:23.328Z,100.00
2022-10-22T23:52:26.185Z,100.00
2022-10-22T23:55:28.763Z,100.00
2022-10-22T23:58:31.607Z,100.00
